createdAt,value
2022-10-28T00:01:23.896Z,3.17
2022-10-28T00:04:26.156Z,3.15
2022-10-28T00:07:29.173Z,3.42
2022-10-28T00:10:31.382Z,3.78
2022-10-28T00:13:34.341Z,3.33
2022-10-28T00:16:38.138Z,2.92
2022-10-28T00:19:40.286Z,4.10
2022-10-28T00:22:42.952Z,3.15
2022-10-28T00:25:44.997Z,3.22
2022-10-28T00:28:50.346Z,3.08
2022-10-28T00:31:52.844Z,3.67
2022-10-28T00:34:55.111Z,3.13
2022-10-28T00:37:57.209Z,3.17
2022-10-28T00:40:59.308Z,2.63
2022-10-28T00:44:22.939Z,3.38
2022-10-28T00:47:56.088Z,3.10
2022-10-28T00:50:59.104Z,3.03
2022-10-28T00:54:02.270Z,3.85
2022-10-28T00:57:10.554Z,3.15
2022-10-28T01:00:14.181Z,3.00
2022-10-28T01:03:16.904Z,3.10
2022-10-28T01:06:19.097Z,3.05
2022-10-28T01:09:21.285Z,2.35
2022-10-28T01:12:35.392Z,2.90
2022-10-28T01:15:49.215Z,2.95
2022-10-28T01:19:21.398Z,2.65
2022-10-28T01:22:26.577Z,3.03
2022-10-28T01:25:47.616Z,2.95
2022-10-28T01:28:52.519Z,2.90
2022-10-28T01:32:00.783Z,2.80
2022-10-28T01:35:15.281Z,2.78
2022-10-28T01:38:17.544Z,3.25
2022-10-28T01:41:38.766Z,3.33
2022-10-28T01:44:45.954Z,3.30
2022-10-28T01:48:03.216Z,3.20
2022-10-28T01:51:34.929Z,2.90
2022-10-28T01:54:39.945Z,2.83
2022-10-28T01:57:43.407Z,2.70
2022-10-28T02:00:47.723Z,2.53
2022-10-28T02:03:51.109Z,2.90
2022-10-28T02:06:56.968Z,2.90
2022-10-28T02:10:16.435Z,2.92
2022-10-28T02:13:23.125Z,2.75
2022-10-28T02:16:34.248Z,2.83
2022-10-28T02:20:06.308Z,2.80
2022-10-28T02:23:23.225Z,3.53
2022-10-28T02:26:37.981Z,3.25
2022-10-28T02:29:49.942Z,3.35
2022-10-28T02:32:59.786Z,3.13
2022-10-28T02:36:07.182Z,2.85
2022-10-28T02:39:10.974Z,2.85
2022-10-28T02:42:18.402Z,3.28
2022-10-28T02:45:28.508Z,2.70
2022-10-28T02:48:30.723Z,2.67
2022-10-28T02:51:44.924Z,3.10
2022-10-28T02:55:05.228Z,2.85
2022-10-28T02:58:08.202Z,2.30
2022-10-28T03:01:10.543Z,3.50
2022-10-28T03:04:12.724Z,3.40
2022-10-28T03:07:14.945Z,3.20
2022-10-28T03:10:17.381Z,2.65
2022-10-28T03:13:19.627Z,3.03
2022-10-28T03:16:21.827Z,2.60
2022-10-28T03:19:23.970Z,3.13
2022-10-28T03:22:26.186Z,2.67
2022-10-28T03:25:28.437Z,2.70
2022-10-28T03:28:30.519Z,2.67
2022-10-28T03:31:32.630Z,2.80
2022-10-28T03:34:34.722Z,2.53
2022-10-28T03:37:36.938Z,2.88
2022-10-28T03:40:39.109Z,2.90
2022-10-28T03:43:41.607Z,3.05
2022-10-28T03:46:43.691Z,2.70
2022-10-28T03:49:45.883Z,2.40
2022-10-28T03:52:48.051Z,2.63
2022-10-28T03:55:54.928Z,2.72
2022-10-28T03:58:57.156Z,2.60
2022-10-28T04:01:59.459Z,2.40
2022-10-28T04:05:01.648Z,2.60
2022-10-28T04:08:03.904Z,2.67
2022-10-28T04:11:06.485Z,2.47
2022-10-28T04:14:08.628Z,3.03
2022-10-28T04:17:11.043Z,2.40
2022-10-28T04:20:13.205Z,2.30
2022-10-28T04:23:18.380Z,2.47
2022-10-28T04:26:20.612Z,2.83
2022-10-28T04:29:22.858Z,2.50
2022-10-28T04:32:24.982Z,3.03
2022-10-28T04:35:27.223Z,2.55
2022-10-28T04:38:29.450Z,2.60
2022-10-28T04:41:31.726Z,2.70
2022-10-28T04:44:33.945Z,2.38
2022-10-28T04:47:36.162Z,2.80
2022-10-28T04:50:38.903Z,2.90
2022-10-28T04:53:45.800Z,2.88
2022-10-28T04:56:48.031Z,2.42
2022-10-28T04:59:50.176Z,2.60
2022-10-28T05:02:52.553Z,2.60
2022-10-28T05:05:55.185Z,2.50
2022-10-28T05:08:57.314Z,2.40
2022-10-28T05:11:59.505Z,2.50
2022-10-28T05:15:01.636Z,3.10
2022-10-28T05:18:03.870Z,2.42
2022-10-28T05:21:06.357Z,2.80
2022-10-28T05:24:08.671Z,2.53
2022-10-28T05:27:10.939Z,2.10
2022-10-28T05:30:13.819Z,2.45
2022-10-28T05:33:15.881Z,2.47
2022-10-28T05:36:18.157Z,2.60
2022-10-28T05:39:20.234Z,2.50
2022-10-28T05:42:22.360Z,2.53
2022-10-28T05:45:24.720Z,2.42
2022-10-28T05:48:27.123Z,2.10
2022-10-28T05:51:29.250Z,2.50
2022-10-28T05:54:31.425Z,2.60
2022-10-28T05:57:36.557Z,2.42
2022-10-28T06:00:38.674Z,2.40
2022-10-28T06:03:40.836Z,2.80
2022-10-28T06:06:43.028Z,2.58
2022-10-28T06:09:45.211Z,2.72
2022-10-28T06:12:45.765Z,2.10
2022-10-28T06:15:55.418Z,2.70
2022-10-28T06:18:57.707Z,2.50
2022-10-28T06:21:59.814Z,2.50
2022-10-28T06:25:02.127Z,2.42
2022-10-28T06:28:08.206Z,3.17
2022-10-28T06:31:12.566Z,1.90
2022-10-28T06:34:14.743Z,2.65
2022-10-28T06:37:16.975Z,2.50
2022-10-28T06:40:19.207Z,2.85
2022-10-28T06:43:21.326Z,2.50
2022-10-28T06:46:23.481Z,2.30
2022-10-28T06:49:28.572Z,2.80
2022-10-28T06:52:30.757Z,2.38
2022-10-28T06:55:32.862Z,2.67
2022-10-28T06:58:35.066Z,2.75
2022-10-28T07:01:37.306Z,2.67
2022-10-28T07:04:39.473Z,2.50
2022-10-28T07:07:41.674Z,2.80
2022-10-28T07:10:43.801Z,2.35
2022-10-28T07:13:48.872Z,2.92
2022-10-28T07:16:51.309Z,2.90
2022-10-28T07:19:53.433Z,2.53
2022-10-28T07:23:00.385Z,2.72
2022-10-28T07:26:02.529Z,2.55
2022-10-28T07:29:04.688Z,2.53
2022-10-28T07:32:06.912Z,3.20
2022-10-28T07:35:09.326Z,2.92
2022-10-28T07:38:11.806Z,3.33
2022-10-28T07:41:14.009Z,2.85
2022-10-28T07:44:16.359Z,2.90
2022-10-28T07:47:19.773Z,2.10
2022-10-28T07:50:22.148Z,2.72
2022-10-28T07:53:27.729Z,3.08
2022-10-28T07:56:30.936Z,2.40
2022-10-28T07:59:33.022Z,2.47
2022-10-28T08:02:35.279Z,2.47
2022-10-28T08:05:37.413Z,2.42
2022-10-28T08:08:40.162Z,2.53
2022-10-28T08:11:42.409Z,2.53
2022-10-28T08:14:44.601Z,2.22
2022-10-28T08:17:51.898Z,2.28
2022-10-28T08:20:54.156Z,1.88
2022-10-28T08:23:56.429Z,2.35
2022-10-28T08:26:58.615Z,2.33
2022-10-28T08:30:00.948Z,2.13
2022-10-28T08:33:03.035Z,2.28
2022-10-28T08:36:06.804Z,2.17
2022-10-28T08:39:09.132Z,2.30
2022-10-28T08:55:14.527Z,2.28
2022-10-28T08:58:36.733Z,1.77
2022-10-28T09:01:49.078Z,2.05
2022-10-28T09:05:15.372Z,2.00
2022-10-28T09:08:23.865Z,2.00
2022-10-28T09:11:38.889Z,1.67
2022-10-28T09:14:53.390Z,1.42
2022-10-28T09:18:08.569Z,2.40
2022-10-28T09:21:29.540Z,2.22
2022-10-28T09:24:53.529Z,1.75
2022-10-28T09:28:01.317Z,1.90
2022-10-28T09:31:29.039Z,1.90
2022-10-28T09:34:47.285Z,1.77
2022-10-28T09:37:53.965Z,1.65
2022-10-28T09:41:10.811Z,1.77
2022-10-28T09:44:54.474Z,1.70
2022-10-28T09:48:01.700Z,1.65
2022-10-28T09:51:04.221Z,1.83
2022-10-28T09:54:08.042Z,1.73
2022-10-28T09:57:12.525Z,2.22
2022-10-28T10:00:17.973Z,1.70
2022-10-28T10:03:20.396Z,1.48
2022-10-28T10:06:39.424Z,2.00
2022-10-28T10:09:43.746Z,1.50
2022-10-28T10:12:51.398Z,1.70
2022-10-28T10:15:59.980Z,2.10
2022-10-28T10:19:05.329Z,1.95
2022-10-28T10:25:40.165Z,2.45
2022-10-28T10:28:50.811Z,1.67
2022-10-28T10:32:21.382Z,1.98
2022-10-28T10:35:32.178Z,1.63
2022-10-28T10:38:36.005Z,1.80
2022-10-28T10:41:40.079Z,1.92
2022-10-28T10:44:43.941Z,2.10
2022-10-28T10:47:46.147Z,1.85
2022-10-28T10:50:49.773Z,1.83
2022-10-28T10:53:56.438Z,1.58
2022-10-28T10:57:20.982Z,1.70
2022-10-28T11:00:28.306Z,2.15
2022-10-28T11:03:30.406Z,1.55
2022-10-28T11:06:39.538Z,2.00
2022-10-28T11:09:44.698Z,1.73
2022-10-28T11:12:58.640Z,1.73
2022-10-28T11:16:06.104Z,1.80
2022-10-28T11:19:35.448Z,1.75
2022-10-28T11:22:59.321Z,1.50
2022-10-28T11:26:08.760Z,1.73
2022-10-28T11:29:16.181Z,1.98
2022-10-28T11:32:27.595Z,1.50
2022-10-28T11:35:43.003Z,1.75
2022-10-28T11:39:06.663Z,1.85
2022-10-28T11:42:32.204Z,1.95
2022-10-28T11:46:03.788Z,1.60
2022-10-28T11:49:39.938Z,1.80
2022-10-28T11:53:15.243Z,1.60
2022-10-28T11:56:42.611Z,1.88
2022-10-28T12:00:09.770Z,1.50
2022-10-28T12:03:29.720Z,1.60
2022-10-28T12:06:40.715Z,1.80
2022-10-28T12:09:45.522Z,1.45
2022-10-28T12:13:05.889Z,1.67
2022-10-28T12:16:14.179Z,1.90
2022-10-28T12:19:30.158Z,1.70
2022-10-28T12:22:41.001Z,1.80
2022-10-28T12:25:46.707Z,1.65
2022-10-28T12:28:56.138Z,1.95
2022-10-28T12:32:07.319Z,2.13
2022-10-28T12:35:23.600Z,1.85
2022-10-28T12:38:51.765Z,1.70
2022-10-28T12:41:57.019Z,2.03
2022-10-28T12:45:02.094Z,1.88
2022-10-28T12:48:14.194Z,2.20
2022-10-28T12:51:31.477Z,1.98
2022-10-28T12:54:55.481Z,2.22
2022-10-28T12:58:10.372Z,2.00
2022-10-28T13:01:19.281Z,3.17
2022-10-28T13:04:21.642Z,2.72
2022-10-28T13:07:32.635Z,2.70
2022-10-28T13:11:05.609Z,2.97
2022-10-28T13:14:42.353Z,4.18
2022-10-28T13:17:47.417Z,4.13
2022-10-28T13:20:49.621Z,4.18
2022-10-28T13:23:59.833Z,4.88
2022-10-28T13:27:06.067Z,5.55
2022-10-28T13:30:19.536Z,6.47
2022-10-28T13:33:26.639Z,6.68
2022-10-28T13:36:38.855Z,8.13
2022-10-28T13:39:46.090Z,8.25
2022-10-28T13:42:49.832Z,8.80
2022-10-28T13:45:56.441Z,8.20
2022-10-28T13:49:25.617Z,9.30
2022-10-28T13:52:27.828Z,8.90
2022-10-28T13:55:39.031Z,10.15
2022-10-28T13:58:50.692Z,12.52
2022-10-28T14:02:08.052Z,9.38
2022-10-28T14:05:25.685Z,12.05
2022-10-28T14:08:29.664Z,11.68
2022-10-28T14:11:32.707Z,11.35
2022-10-28T14:14:35.231Z,12.77
2022-10-28T14:17:43.003Z,11.52
2022-10-28T14:20:48.036Z,13.70
2022-10-28T14:24:06.988Z,9.70
2022-10-28T14:27:09.481Z,13.80
2022-10-28T14:30:17.272Z,11.98
2022-10-28T14:33:21.229Z,12.35
2022-10-28T14:37:05.666Z,13.90
2022-10-28T14:40:23.004Z,12.50
2022-10-28T14:43:40.492Z,15.43
2022-10-28T14:46:51.242Z,13.15
2022-10-28T14:50:02.055Z,11.88
2022-10-28T14:53:08.336Z,15.35
2022-10-28T14:56:18.867Z,13.27
2022-10-28T14:59:40.439Z,14.02
2022-10-28T15:02:42.743Z,13.73
2022-10-28T15:05:44.970Z,13.23
2022-10-28T15:08:47.193Z,13.60
2022-10-28T15:12:02.003Z,13.57
2022-10-28T15:15:16.449Z,11.75
2022-10-28T15:18:26.055Z,12.30
2022-10-28T15:21:28.422Z,14.23
2022-10-28T15:24:31.010Z,13.13
2022-10-28T15:27:36.640Z,13.93
2022-10-28T15:30:46.091Z,11.82
2022-10-28T15:33:48.760Z,14.88
2022-10-28T15:40:34.950Z,13.18
2022-10-28T15:43:37.898Z,12.80
2022-10-28T15:46:40.087Z,11.75
2022-10-28T15:49:42.311Z,11.52
2022-10-28T15:52:45.640Z,12.60
2022-10-28T15:56:06.593Z,11.65
2022-10-28T15:59:21.464Z,13.13
2022-10-28T16:02:43.159Z,14.15
2022-10-28T16:05:48.498Z,9.82
2022-10-28T16:09:29.667Z,12.88
2022-10-28T16:12:31.826Z,11.15
2022-10-28T16:15:33.960Z,12.40
2022-10-28T16:18:43.828Z,12.35
2022-10-28T16:21:45.998Z,13.70
2022-10-28T16:24:53.248Z,13.07
2022-10-28T16:27:57.150Z,10.60
2022-10-28T16:31:01.919Z,14.25
2022-10-28T16:34:04.112Z,13.23
2022-10-28T16:37:21.548Z,11.15
2022-10-28T16:40:50.419Z,12.30
2022-10-28T16:43:46.326Z,13.23
2022-10-28T16:46:48.433Z,11.38
2022-10-28T16:49:54.245Z,12.75
2022-10-28T16:52:59.890Z,13.00
2022-10-28T16:56:02.175Z,13.57
2022-10-28T16:59:04.394Z,11.35
2022-10-28T17:02:33.789Z,13.23
2022-10-28T17:05:36.110Z,14.07
2022-10-28T17:12:00.492Z,13.52
2022-10-28T17:15:02.618Z,12.40
2022-10-28T17:18:05.102Z,13.43
2022-10-28T17:21:07.271Z,13.02
2022-10-28T17:24:09.426Z,13.30
2022-10-28T17:27:12.976Z,12.60
2022-10-28T17:30:17.557Z,13.07
2022-10-28T17:33:19.929Z,13.43
2022-10-28T17:36:23.345Z,14.15
2022-10-28T17:39:26.630Z,13.30
2022-10-28T17:42:28.981Z,15.43
2022-10-28T17:45:31.217Z,13.90
2022-10-28T17:48:34.261Z,13.90
2022-10-28T17:51:37.191Z,14.02
2022-10-28T17:54:39.297Z,14.68
2022-10-28T17:57:41.545Z,14.93
2022-10-28T18:00:44.234Z,15.07
2022-10-28T18:03:50.407Z,14.65
2022-10-28T18:06:54.216Z,14.27
2022-10-28T18:09:56.336Z,15.07
2022-10-28T18:12:58.496Z,14.27
2022-10-28T18:16:12.081Z,14.65
2022-10-28T18:19:14.355Z,15.48
2022-10-28T18:22:16.609Z,15.07
2022-10-28T18:25:18.822Z,15.55
2022-10-28T18:28:23.586Z,14.68
2022-10-28T18:31:25.931Z,15.68
2022-10-28T18:34:28.122Z,15.38
2022-10-28T18:37:30.223Z,14.88
2022-10-28T18:40:32.333Z,14.95
2022-10-28T18:43:34.490Z,15.00
2022-10-28T18:46:37.898Z,15.00
2022-10-28T18:49:39.985Z,15.38
2022-10-28T18:52:42.219Z,15.93
2022-10-28T18:55:44.413Z,15.00
2022-10-28T18:58:49.376Z,14.07
2022-10-28T19:01:51.835Z,15.55
2022-10-28T19:04:54.807Z,15.13
2022-10-28T19:07:57.433Z,15.23
2022-10-28T19:11:01.235Z,13.88
2022-10-28T19:14:05.797Z,14.27
2022-10-28T19:17:09.102Z,13.70
2022-10-28T19:20:11.192Z,14.30
2022-10-28T19:23:13.362Z,13.48
2022-10-28T19:26:15.798Z,13.70
2022-10-28T19:29:17.892Z,13.80
2022-10-28T19:32:20.257Z,13.45
2022-10-28T19:35:22.309Z,13.88
2022-10-28T19:38:24.366Z,12.30
2022-10-28T19:41:28.942Z,13.93
2022-10-28T19:44:31.043Z,13.75
2022-10-28T19:47:33.220Z,13.20
2022-10-28T19:50:35.263Z,12.88
2022-10-28T19:53:37.425Z,12.98
2022-10-28T19:56:39.745Z,12.40
2022-10-28T19:59:41.929Z,12.90
2022-10-28T20:02:44.146Z,13.32
2022-10-28T20:05:46.350Z,13.32
2022-10-28T20:08:49.663Z,12.00
2022-10-28T20:11:51.719Z,11.52
2022-10-28T20:14:53.855Z,11.02
2022-10-28T20:17:55.924Z,11.32
2022-10-28T20:21:04.298Z,11.32
2022-10-28T20:24:07.902Z,11.27
2022-10-28T20:27:10.076Z,10.80
2022-10-28T20:30:12.828Z,11.98
2022-10-28T20:33:14.967Z,11.30
2022-10-28T20:36:32.093Z,10.80
2022-10-28T20:39:34.227Z,11.23
2022-10-28T20:42:36.406Z,12.07
2022-10-28T20:45:38.500Z,10.75
2022-10-28T20:48:40.741Z,11.18
2022-10-28T20:51:43.175Z,10.73
2022-10-28T20:54:45.343Z,10.93
2022-10-28T20:57:47.433Z,10.20
2022-10-28T21:00:51.635Z,9.32
2022-10-28T21:04:15.205Z,8.38
2022-10-28T21:07:17.334Z,10.18
2022-10-28T21:10:19.411Z,9.93
2022-10-28T21:13:21.580Z,9.10
2022-10-28T21:16:24.298Z,9.13
2022-10-28T21:19:26.523Z,9.13
2022-10-28T21:22:28.623Z,10.18
2022-10-28T21:25:31.229Z,10.00
2022-10-28T21:28:34.113Z,9.32
2022-10-28T21:31:36.180Z,10.35
2022-10-28T21:34:38.370Z,8.68
2022-10-28T21:37:40.525Z,10.07
2022-10-28T21:40:42.643Z,9.63
2022-10-28T21:43:47.970Z,9.65
2022-10-28T21:46:50.335Z,9.77
2022-10-28T21:49:52.547Z,9.00
2022-10-28T21:56:16.321Z,9.40
2022-10-28T21:59:19.589Z,9.32
2022-10-28T22:02:21.807Z,8.57
2022-10-28T22:05:23.944Z,9.45
2022-10-28T22:08:26.578Z,9.20
2022-10-28T22:11:29.125Z,9.00
2022-10-28T22:14:32.163Z,8.05
2022-10-28T22:17:34.333Z,7.78
2022-10-28T22:20:36.515Z,7.75
2022-10-28T22:23:39.007Z,8.65
2022-10-28T22:26:41.155Z,8.88
2022-10-28T22:29:43.260Z,8.45
2022-10-28T22:32:45.397Z,8.07
2022-10-28T22:35:59.441Z,8.13
2022-10-28T22:39:01.652Z,7.60
2022-10-28T22:42:04.164Z,7.93
2022-10-28T22:45:06.834Z,7.50
2022-10-28T22:48:09.383Z,7.82
2022-10-28T22:51:12.054Z,7.32
2022-10-28T22:54:14.295Z,7.80
2022-10-28T22:57:16.378Z,7.88
2022-10-28T23:03:21.769Z,7.38
2022-10-28T23:06:25.949Z,7.35
2022-10-28T23:09:28.160Z,6.93
2022-10-28T23:12:30.258Z,7.43
2022-10-28T23:15:32.373Z,7.18
2022-10-28T23:18:34.886Z,7.03
2022-10-28T23:21:37.149Z,7.88
2022-10-28T23:24:39.284Z,7.88
2022-10-28T23:27:42.502Z,7.22
2022-10-28T23:30:44.576Z,7.65
2022-10-28T23:33:47.141Z,7.30
2022-10-28T23:36:54.127Z,6.15
2022-10-28T23:39:56.282Z,6.82
2022-10-28T23:42:58.570Z,5.90
2022-10-28T23:46:01.726Z,6.57
2022-10-28T23:49:03.941Z,6.88
2022-10-28T23:52:06.222Z,6.72
2022-10-28T23:55:08.951Z,7.15
2022-10-28T23:58:12.535Z,6.97
